createdAt,value
2023-05-18T00:01:30.924Z,101999.17
2023-05-18T00:04:17.336Z,102002.75
2023-05-18T00:07:05.473Z,102009.00
2023-05-18T00:09:52.327Z,102007.65
2023-05-18T00:12:38.869Z,102010.66
2023-05-18T00:15:25.205Z,102014.66
2023-05-18T00:18:11.778Z,102020.29
2023-05-18T00:21:01.076Z,102022.02
2023-05-18T00:23:49.745Z,102022.04
2023-05-18T00:26:38.472Z,102024.48
2023-05-18T00:29:24.818Z,102028.26
2023-05-18T00:32:11.313Z,102027.66
2023-05-18T00:34:57.744Z,102026.19
2023-05-18T00:37:44.481Z,102025.16
2023-05-18T00:40:30.932Z,102025.75
2023-05-18T00:43:17.466Z,102031.54
2023-05-18T00:46:03.825Z,102033.96
2023-05-18T00:48:51.699Z,102026.63
2023-05-18T00:51:39.410Z,102018.34
2023-05-18T00:54:26.218Z,102021.02
2023-05-18T00:57:12.888Z,102024.89
2023-05-18T01:00:01.185Z,102026.96
2023-05-18T01:02:51.466Z,102027.45
2023-05-18T01:05:38.531Z,102027.69
2023-05-18T01:08:27.416Z,102029.55
2023-05-18T01:11:16.840Z,102032.92
2023-05-18T01:14:18.195Z,102031.70
2023-05-18T01:17:23.460Z,102031.05
2023-05-18T01:20:40.541Z,102034.16
2023-05-18T01:23:41.666Z,102036.88
2023-05-18T01:26:31.813Z,102047.02
2023-05-18T01:29:21.075Z,102048.14
2023-05-18T01:32:08.008Z,102049.46
2023-05-18T01:34:54.306Z,102038.88
2023-05-18T01:37:42.025Z,102046.27
2023-05-18T01:40:35.210Z,102050.19
2023-05-18T01:43:27.886Z,102051.15
2023-05-18T01:46:54.134Z,102054.52
2023-05-18T01:50:09.050Z,102056.34
2023-05-18T01:53:03.221Z,102058.60
2023-05-18T01:55:52.544Z,102063.33
2023-05-18T01:58:40.635Z,102060.67
2023-05-18T02:01:27.035Z,102058.04
2023-05-18T02:04:13.656Z,102056.67
2023-05-18T02:06:59.955Z,102068.51
2023-05-18T02:09:46.694Z,102076.61
2023-05-18T02:12:33.445Z,102076.27
2023-05-18T02:15:21.393Z,102074.60
2023-05-18T02:18:08.616Z,102072.27
2023-05-18T02:20:59.914Z,102063.91
2023-05-18T02:23:46.955Z,102070.27
2023-05-18T02:26:33.771Z,102070.15
2023-05-18T02:29:20.531Z,102065.84
2023-05-18T02:32:08.030Z,102074.32
2023-05-18T02:34:54.611Z,102075.31
2023-05-18T02:37:43.949Z,102080.73
2023-05-18T02:40:30.864Z,102080.48
2023-05-18T02:43:17.483Z,102081.21
2023-05-18T02:46:05.202Z,102077.85
2023-05-18T02:48:52.481Z,102079.80
2023-05-18T02:51:38.975Z,102078.94
2023-05-18T02:54:25.970Z,102074.21
2023-05-18T02:57:13.873Z,102079.74
2023-05-18T03:00:10.683Z,102085.59
2023-05-18T03:02:57.854Z,102089.84
2023-05-18T03:05:44.894Z,102101.27
2023-05-18T03:08:31.636Z,102102.52
2023-05-18T03:11:18.455Z,102101.12
2023-05-18T03:14:05.698Z,102102.58
2023-05-18T03:16:54.510Z,102108.91
2023-05-18T03:19:42.186Z,102108.89
2023-05-18T03:22:28.819Z,102107.55
2023-05-18T03:25:15.158Z,102111.55
2023-05-18T03:28:01.781Z,102118.02
2023-05-18T03:30:48.633Z,102119.24
2023-05-18T03:33:35.357Z,102120.00
2023-05-18T03:36:28.270Z,102116.83
2023-05-18T03:39:14.926Z,102114.73
2023-05-18T03:42:01.631Z,102116.27
2023-05-18T03:44:48.723Z,102116.13
2023-05-18T03:47:36.206Z,102118.77
2023-05-18T03:50:23.101Z,102122.39
2023-05-18T03:53:09.660Z,102122.11
2023-05-18T03:55:57.017Z,102128.83
2023-05-18T03:58:44.539Z,102131.08
2023-05-18T04:01:34.562Z,102130.68
2023-05-18T04:04:23.632Z,102128.85
2023-05-18T04:07:10.713Z,102135.63
2023-05-18T04:09:57.626Z,102133.92
2023-05-18T04:12:45.273Z,102133.40
2023-05-18T04:15:33.717Z,102139.04
2023-05-18T04:18:20.597Z,102138.70
2023-05-18T04:21:07.140Z,102151.34
2023-05-18T04:23:53.445Z,102147.78
2023-05-18T04:26:40.505Z,102160.92
2023-05-18T04:29:28.955Z,102161.42
2023-05-18T04:32:18.474Z,102162.81
2023-05-18T04:35:07.176Z,102167.84
2023-05-18T04:37:54.726Z,102171.96
2023-05-18T04:40:42.904Z,102174.46
2023-05-18T04:43:31.690Z,102172.34
2023-05-18T04:46:18.885Z,102175.08
2023-05-18T04:49:06.075Z,102174.30
2023-05-18T04:51:58.949Z,102174.15
2023-05-18T04:54:46.115Z,102177.92
2023-05-18T04:57:32.702Z,102183.80
2023-05-18T05:00:20.577Z,102187.20
2023-05-18T05:03:09.393Z,102189.05
2023-05-18T05:05:56.135Z,102184.14
2023-05-18T05:08:43.843Z,102187.75
2023-05-18T05:11:30.679Z,102191.78
2023-05-18T05:14:17.521Z,102189.42
2023-05-18T05:17:04.274Z,102191.42
2023-05-18T05:19:50.715Z,102195.32
2023-05-18T05:22:37.443Z,102195.98
2023-05-18T05:25:25.694Z,102187.20
2023-05-18T05:28:12.724Z,102192.84
2023-05-18T05:30:59.310Z,102198.20
2023-05-18T05:33:46.079Z,102194.39
2023-05-18T05:36:33.889Z,102195.61
2023-05-18T05:39:20.787Z,102195.06
2023-05-18T05:42:08.409Z,102203.06
2023-05-18T05:44:54.865Z,102205.11
2023-05-18T05:47:42.521Z,102206.95
2023-05-18T05:50:29.281Z,102210.19
2023-05-18T05:53:19.853Z,102213.09
2023-05-18T05:56:08.521Z,102212.19
2023-05-18T05:58:57.660Z,102208.72
2023-05-18T06:01:45.230Z,102214.70
2023-05-18T06:04:32.084Z,102211.46
2023-05-18T06:07:19.231Z,102215.59
2023-05-18T06:10:06.043Z,102220.81
2023-05-18T06:12:52.485Z,102219.04
2023-05-18T06:15:40.424Z,102220.84
2023-05-18T06:18:27.201Z,102220.84
2023-05-18T06:21:18.293Z,102221.89
2023-05-18T06:24:05.211Z,102214.92
2023-05-18T06:27:00.207Z,102211.52
2023-05-18T06:30:08.218Z,102212.89
2023-05-18T06:32:59.666Z,102217.89
2023-05-18T06:35:46.050Z,102222.29
2023-05-18T06:38:32.895Z,102222.77
2023-05-18T06:41:19.810Z,102219.83
2023-05-18T06:44:06.711Z,102219.40
2023-05-18T06:46:56.968Z,102225.92
2023-05-18T06:49:47.538Z,102224.70
2023-05-18T06:52:35.023Z,102224.02
2023-05-18T06:55:22.330Z,102226.67
2023-05-18T06:58:09.197Z,102225.96
2023-05-18T07:00:56.432Z,102224.08
2023-05-18T07:03:44.108Z,102224.41
2023-05-18T07:06:31.340Z,102229.48
2023-05-18T07:09:17.659Z,102229.52
2023-05-18T07:12:04.469Z,102228.09
2023-05-18T07:14:51.060Z,102227.85
2023-05-18T07:17:38.866Z,102225.23
2023-05-18T07:20:26.541Z,102228.70
2023-05-18T07:23:13.825Z,102232.41
2023-05-18T07:26:00.490Z,102233.41
2023-05-18T07:28:47.877Z,102230.92
2023-05-18T07:31:38.930Z,102233.43
2023-05-18T07:34:27.367Z,102231.80
2023-05-18T07:37:14.334Z,102233.48
2023-05-18T07:40:00.717Z,102230.41
2023-05-18T07:42:47.631Z,102234.57
2023-05-18T07:45:34.500Z,102236.05
2023-05-18T07:48:21.353Z,102231.85
2023-05-18T07:51:08.188Z,102234.30
2023-05-18T07:53:54.550Z,102236.30
2023-05-18T07:56:40.936Z,102242.46
2023-05-18T07:59:27.276Z,102245.77
2023-05-18T08:02:13.445Z,102242.23
2023-05-18T08:05:00.081Z,102239.18
2023-05-18T08:07:46.693Z,102242.50
2023-05-18T08:10:33.504Z,102241.73
2023-05-18T08:13:20.022Z,102239.55
2023-05-18T08:16:11.900Z,102246.55
2023-05-18T08:18:59.036Z,102246.94
2023-05-18T08:21:46.515Z,102243.32
2023-05-18T08:24:33.866Z,102236.19
2023-05-18T08:27:20.596Z,102238.79
2023-05-18T08:30:07.376Z,102238.68
2023-05-18T08:32:53.683Z,102236.48
2023-05-18T08:35:40.564Z,102237.70
2023-05-18T08:38:27.023Z,102237.83
2023-05-18T08:41:22.990Z,102239.45
2023-05-18T08:44:15.226Z,102239.38
2023-05-18T08:47:03.753Z,102240.19
2023-05-18T08:49:51.889Z,102243.20
2023-05-18T08:52:47.059Z,102235.70
2023-05-18T08:55:37.628Z,102239.70
2023-05-18T08:58:34.395Z,102236.78
2023-05-18T09:01:23.567Z,102236.34
2023-05-18T09:04:10.699Z,102236.73
2023-05-18T09:07:00.129Z,102235.80
2023-05-18T09:09:47.917Z,102237.02
2023-05-18T09:12:35.280Z,102234.08
2023-05-18T09:15:22.041Z,102229.80
2023-05-18T09:18:08.269Z,102229.59
2023-05-18T09:20:55.004Z,102227.70
2023-05-18T09:23:41.620Z,102227.58
2023-05-18T09:26:28.272Z,102219.11
2023-05-18T09:29:17.394Z,102225.57
2023-05-18T09:32:04.740Z,102226.09
2023-05-18T09:34:52.460Z,102227.41
2023-05-18T09:37:42.032Z,102216.56
2023-05-18T09:40:29.667Z,102225.02
2023-05-18T09:43:19.482Z,102220.23
2023-05-18T09:46:08.088Z,102207.04
2023-05-18T09:48:55.476Z,102216.18
2023-05-18T09:51:42.272Z,102215.73
2023-05-18T09:54:29.066Z,102208.61
2023-05-18T09:57:20.797Z,102204.17
2023-05-18T10:00:11.205Z,102200.61
2023-05-18T10:02:57.893Z,102200.29
2023-05-18T10:05:44.610Z,102195.25
2023-05-18T10:08:31.541Z,102194.66
2023-05-18T10:11:19.994Z,102195.68
2023-05-18T10:14:06.598Z,102196.47
2023-05-18T10:17:00.418Z,102201.75
2023-05-18T10:19:56.983Z,102198.70
2023-05-18T10:22:46.476Z,102196.80
2023-05-18T10:25:33.810Z,102190.37
2023-05-18T10:28:27.601Z,102190.54
2023-05-18T10:31:16.647Z,102192.94
2023-05-18T10:34:04.219Z,102194.34
2023-05-18T10:36:50.912Z,102191.13
2023-05-18T10:39:37.333Z,102182.48
2023-05-18T10:42:25.991Z,102187.91
2023-05-18T10:45:12.666Z,102186.50
2023-05-18T10:48:01.601Z,102180.59
2023-05-18T10:50:50.748Z,102185.40
2023-05-18T10:53:43.850Z,102185.91
2023-05-18T10:56:31.268Z,102187.34
2023-05-18T10:59:19.681Z,102190.79
2023-05-18T11:02:06.683Z,102194.39
2023-05-18T11:04:54.581Z,102193.79
2023-05-18T11:07:45.161Z,102192.22
2023-05-18T11:10:41.048Z,102185.65
2023-05-18T11:13:32.322Z,102186.97
2023-05-18T11:16:19.951Z,102186.10
2023-05-18T11:19:07.903Z,102180.25
2023-05-18T11:21:54.487Z,102170.48
2023-05-18T11:24:42.464Z,102166.03
2023-05-18T11:27:28.927Z,102176.66
2023-05-18T11:30:45.766Z,102174.39
2023-05-18T11:33:32.305Z,102167.42
2023-05-18T11:36:23.312Z,102167.33
2023-05-18T11:39:11.638Z,102168.27
2023-05-18T11:42:09.523Z,102167.21
2023-05-18T11:44:56.236Z,102162.89
2023-05-18T11:47:42.689Z,102161.73
2023-05-18T11:50:30.848Z,102162.17
2023-05-18T11:53:18.451Z,102168.44
2023-05-18T11:56:05.961Z,102163.56
2023-05-18T11:59:15.113Z,102162.08
2023-05-18T12:02:03.713Z,102167.31
2023-05-18T12:04:55.385Z,102166.73
2023-05-18T12:07:43.138Z,102161.90
2023-05-18T12:10:31.134Z,102166.34
2023-05-18T12:13:17.778Z,102163.95
2023-05-18T12:16:06.604Z,102157.38
2023-05-18T12:18:53.452Z,102162.67
2023-05-18T12:21:40.280Z,102157.45
2023-05-18T12:24:26.763Z,102146.83
2023-05-18T12:27:13.333Z,102151.82
2023-05-18T12:30:00.360Z,102141.67
2023-05-18T12:32:55.100Z,102149.70
2023-05-18T12:35:42.652Z,102152.36
2023-05-18T12:38:29.338Z,102148.41
2023-05-18T12:41:23.899Z,102147.33
2023-05-18T12:44:10.611Z,102145.55
2023-05-18T12:46:57.261Z,102150.59
2023-05-18T12:49:49.477Z,102145.70
2023-05-18T12:52:37.074Z,102140.98
2023-05-18T12:55:25.176Z,102142.29
2023-05-18T12:58:18.873Z,102141.91
2023-05-18T13:01:11.188Z,102139.43
2023-05-18T13:03:59.171Z,102135.01
2023-05-18T13:06:45.460Z,102138.59
2023-05-18T13:09:32.154Z,102136.30
2023-05-18T13:12:18.537Z,102138.18
2023-05-18T13:15:13.203Z,102126.35
2023-05-18T13:18:09.822Z,102124.56
2023-05-18T13:20:58.653Z,102122.73
2023-05-18T13:23:45.027Z,102122.88
2023-05-18T13:26:31.732Z,102127.27
2023-05-18T13:29:18.545Z,102122.73
2023-05-18T13:32:05.606Z,102124.54
2023-05-18T13:34:55.157Z,102126.73
2023-05-18T13:37:41.850Z,102124.58
2023-05-18T13:40:28.225Z,102123.17
2023-05-18T13:43:14.977Z,102121.89
2023-05-18T13:46:01.366Z,102118.82
2023-05-18T13:48:47.758Z,102113.00
2023-05-18T13:51:34.334Z,102116.02
2023-05-18T13:54:20.700Z,102112.67
2023-05-18T13:57:08.103Z,102109.21
2023-05-18T13:59:54.843Z,102111.38
2023-05-18T14:02:42.037Z,102108.44
2023-05-18T14:05:29.074Z,102115.78
2023-05-18T14:08:15.642Z,102112.77
2023-05-18T14:11:01.968Z,102102.35
2023-05-18T14:13:48.382Z,102108.27
2023-05-18T14:16:36.638Z,102105.77
2023-05-18T14:19:23.486Z,102107.95
2023-05-18T14:22:10.122Z,102107.56
2023-05-18T14:24:56.579Z,102111.60
2023-05-18T14:27:43.088Z,102107.54
2023-05-18T14:30:29.944Z,102099.06
2023-05-18T14:33:17.142Z,102096.77
2023-05-18T14:36:04.133Z,102093.02
2023-05-18T14:38:50.696Z,102098.33
2023-05-18T14:41:36.964Z,102096.98
2023-05-18T14:44:23.514Z,102089.64
2023-05-18T14:47:10.731Z,102092.92
2023-05-18T14:49:57.374Z,102098.93
2023-05-18T14:52:43.842Z,102096.79
2023-05-18T14:55:30.654Z,102096.08
2023-05-18T14:58:17.411Z,102093.48
2023-05-18T15:01:03.973Z,102097.02
2023-05-18T15:03:50.727Z,102095.33
2023-05-18T15:06:37.690Z,102097.77
2023-05-18T15:09:26.564Z,102097.92
2023-05-18T15:12:13.619Z,102096.95
2023-05-18T15:14:59.958Z,102079.77
2023-05-18T15:17:46.903Z,102090.53
2023-05-18T15:20:34.034Z,102091.18
2023-05-18T15:23:20.664Z,102090.02
2023-05-18T15:26:09.111Z,102083.64
2023-05-18T15:28:56.504Z,102087.70
2023-05-18T15:31:43.020Z,102085.39
2023-05-18T15:34:29.904Z,102091.35
2023-05-18T15:37:16.589Z,102101.02
2023-05-18T15:40:03.992Z,102096.90
2023-05-18T15:42:50.349Z,102091.33
2023-05-18T15:45:37.103Z,102089.55
2023-05-18T15:48:23.874Z,102090.21
2023-05-18T15:51:10.701Z,102095.63
2023-05-18T15:53:57.255Z,102091.76
2023-05-18T15:56:43.990Z,102094.70
2023-05-18T15:59:30.285Z,102099.67
2023-05-18T16:02:16.979Z,102102.42
2023-05-18T16:05:04.165Z,102101.56
2023-05-18T16:07:50.701Z,102103.23
2023-05-18T16:10:37.574Z,102101.08
2023-05-18T16:13:26.849Z,102103.32
2023-05-18T16:16:14.328Z,102100.26
2023-05-18T16:19:02.372Z,102098.46
2023-05-18T16:21:49.159Z,102097.27
2023-05-18T16:24:35.587Z,102099.27
2023-05-18T16:27:21.989Z,102099.14
2023-05-18T16:30:08.838Z,102092.97
2023-05-18T16:32:55.466Z,102093.41
2023-05-18T16:35:42.009Z,102094.80
2023-05-18T16:38:29.080Z,102097.28
2023-05-18T16:41:17.078Z,102099.21
2023-05-18T16:44:03.484Z,102099.88
2023-05-18T16:46:49.925Z,102095.39
2023-05-18T16:49:36.489Z,102098.56
2023-05-18T16:52:22.833Z,102095.85
2023-05-18T16:55:09.564Z,102100.44
2023-05-18T16:57:57.090Z,102094.05
2023-05-18T17:00:43.665Z,102098.70
2023-05-18T17:03:30.137Z,102102.93
2023-05-18T17:06:17.130Z,102099.30
2023-05-18T17:09:05.557Z,102102.52
2023-05-18T17:11:52.683Z,102104.66
2023-05-18T17:14:39.644Z,102101.75
2023-05-18T17:17:26.341Z,102109.63
2023-05-18T17:20:13.136Z,102108.15
2023-05-18T17:23:01.855Z,102115.98
2023-05-18T17:25:50.529Z,102113.92
2023-05-18T17:28:39.144Z,102112.04
2023-05-18T17:31:25.900Z,102114.01
2023-05-18T17:34:12.754Z,102115.80
2023-05-18T17:36:59.452Z,102113.92
2023-05-18T17:39:45.723Z,102113.37
2023-05-18T17:42:32.349Z,102118.53
2023-05-18T17:45:19.055Z,102124.23
2023-05-18T17:48:05.891Z,102124.73
2023-05-18T17:50:52.345Z,102127.05
2023-05-18T17:53:42.089Z,102134.64
2023-05-18T17:56:30.472Z,102137.13
2023-05-18T17:59:17.189Z,102139.87
2023-05-18T18:02:03.811Z,102138.33
2023-05-18T18:04:50.658Z,102143.13
2023-05-18T18:07:36.979Z,102145.76
2023-05-18T18:10:23.631Z,102151.20
2023-05-18T18:13:09.992Z,102155.50
2023-05-18T18:15:56.588Z,102156.91
2023-05-18T18:18:43.404Z,102156.95
2023-05-18T18:21:30.036Z,102158.65
2023-05-18T18:24:16.824Z,102158.95
2023-05-18T18:27:03.517Z,102163.60
2023-05-18T18:29:50.108Z,102167.74
2023-05-18T18:32:36.500Z,102168.89
2023-05-18T18:35:23.144Z,102173.35
2023-05-18T18:38:10.008Z,102177.08
2023-05-18T18:41:01.487Z,102182.35
2023-05-18T18:43:48.392Z,102183.56
2023-05-18T18:46:34.827Z,102188.72
2023-05-18T18:49:21.736Z,102182.06
2023-05-18T18:52:08.400Z,102193.39
2023-05-18T18:54:55.121Z,102192.77
2023-05-18T18:57:41.616Z,102191.14
2023-05-18T19:00:28.669Z,102192.84
2023-05-18T19:03:15.047Z,102200.92
2023-05-18T19:06:01.620Z,102201.81
2023-05-18T19:08:48.136Z,102203.81
2023-05-18T19:11:34.722Z,102209.52
2023-05-18T19:14:21.451Z,102213.07
2023-05-18T19:17:07.853Z,102215.62
2023-05-18T19:19:54.530Z,102216.35
2023-05-18T19:22:41.416Z,102217.03
2023-05-18T19:25:30.055Z,102218.95
2023-05-18T19:28:17.078Z,102219.91
2023-05-18T19:31:04.165Z,102221.45
2023-05-18T19:33:51.004Z,102221.15
2023-05-18T19:36:37.515Z,102226.70
2023-05-18T19:39:24.226Z,102229.16
2023-05-18T19:42:10.702Z,102231.02
2023-05-18T19:44:57.091Z,102230.20
2023-05-18T19:47:43.487Z,102236.67
2023-05-18T19:50:30.117Z,102237.23
2023-05-18T19:53:16.613Z,102235.81
2023-05-18T19:56:03.161Z,102241.02
2023-05-18T19:58:49.768Z,102242.39
2023-05-18T20:01:36.293Z,102248.35
2023-05-18T20:04:25.027Z,102252.33
2023-05-18T20:07:12.816Z,102251.83
2023-05-18T20:09:59.890Z,102251.70
2023-05-18T20:12:46.265Z,102260.45
2023-05-18T20:15:36.725Z,102263.23
2023-05-18T20:18:23.851Z,102263.13
2023-05-18T20:21:10.867Z,102272.72
2023-05-18T20:23:57.260Z,102278.69
2023-05-18T20:26:44.221Z,102279.33
2023-05-18T20:29:30.861Z,102278.41
2023-05-18T20:32:17.380Z,102281.66
2023-05-18T20:35:04.105Z,102282.64
2023-05-18T20:37:51.211Z,102285.22
2023-05-18T20:40:38.196Z,102284.89
2023-05-18T20:43:25.120Z,102288.86
2023-05-18T20:46:15.482Z,102288.13
2023-05-18T20:49:02.249Z,102287.96
2023-05-18T20:51:49.460Z,102287.48
2023-05-18T20:54:35.701Z,102291.48
2023-05-18T20:57:22.105Z,102294.30
2023-05-18T21:00:10.299Z,102299.62
2023-05-18T21:02:57.663Z,102299.97
2023-05-18T21:05:44.382Z,102296.73
2023-05-18T21:08:30.789Z,102296.74
2023-05-18T21:11:18.064Z,102297.50
2023-05-18T21:14:04.788Z,102295.77
2023-05-18T21:16:51.212Z,102298.77
2023-05-18T21:19:38.152Z,102301.40
2023-05-18T21:22:24.612Z,102296.76
2023-05-18T21:25:11.247Z,102298.14
2023-05-18T21:27:57.922Z,102308.31
2023-05-18T21:30:45.796Z,102306.90
2023-05-18T21:33:32.607Z,102308.54
2023-05-18T21:36:33.780Z,102309.23
2023-05-18T21:39:20.725Z,102296.14
2023-05-18T21:42:07.999Z,102311.61
2023-05-18T21:44:54.348Z,102311.47
2023-05-18T21:47:40.812Z,102306.75
2023-05-18T21:50:27.722Z,102308.77
2023-05-18T21:53:14.629Z,102312.20
2023-05-18T21:56:01.175Z,102309.88
2023-05-18T21:58:47.685Z,102305.79
2023-05-18T22:01:34.175Z,102309.08
2023-05-18T22:04:21.062Z,102306.70
2023-05-18T22:07:08.625Z,102306.02
2023-05-18T22:09:55.686Z,102301.63
2023-05-18T22:12:43.718Z,102294.77
2023-05-18T22:15:32.012Z,102292.67
2023-05-18T22:18:19.602Z,102297.63
2023-05-18T22:21:05.963Z,102307.15
2023-05-18T22:23:52.486Z,102306.73
2023-05-18T22:26:39.085Z,102308.93
2023-05-18T22:29:26.320Z,102311.69
2023-05-18T22:32:12.808Z,102309.85
2023-05-18T22:35:01.013Z,102310.08
2023-05-18T22:37:47.281Z,102312.23
2023-05-18T22:40:34.099Z,102312.46
2023-05-18T22:43:21.874Z,102315.00
2023-05-18T22:46:08.677Z,102312.79
2023-05-18T22:48:55.025Z,102311.33
2023-05-18T22:51:41.717Z,102309.60
2023-05-18T22:54:28.181Z,102306.80
2023-05-18T22:57:14.854Z,102304.96
2023-05-18T23:00:01.606Z,102303.24
2023-05-18T23:02:48.576Z,102302.79
2023-05-18T23:05:36.966Z,102306.49
2023-05-18T23:08:23.900Z,102305.98
2023-05-18T23:11:10.475Z,102309.68
2023-05-18T23:14:02.506Z,102308.44
2023-05-18T23:16:50.195Z,102305.96
2023-05-18T23:19:37.303Z,102306.92
2023-05-18T23:22:24.478Z,102304.73
2023-05-18T23:25:11.355Z,102305.32
2023-05-18T23:27:57.988Z,102307.63
2023-05-18T23:30:44.502Z,102304.31
2023-05-18T23:33:31.387Z,102304.64
2023-05-18T23:36:20.388Z,102304.56
2023-05-18T23:39:07.345Z,102307.23
2023-05-18T23:41:57.683Z,102307.20
2023-05-18T23:44:44.505Z,102305.53
2023-05-18T23:47:31.401Z,102304.55
2023-05-18T23:50:18.443Z,102307.50
2023-05-18T23:53:06.835Z,102306.65
2023-05-18T23:55:53.450Z,102309.31
2023-05-18T23:58:44.508Z,102305.32
